createdAt,value
2018-12-21T00:00:36.232Z,3.20
2018-12-21T00:03:04.379Z,3.52
2018-12-21T00:05:32.208Z,3.47
2018-12-21T00:08:00.160Z,2.77
2018-12-21T00:10:28.059Z,3.50
2018-12-21T00:12:56.068Z,3.52
2018-12-21T00:15:23.983Z,3.62
2018-12-21T00:17:51.788Z,3.47
2018-12-21T00:20:19.683Z,3.50
2018-12-21T00:22:47.531Z,3.40
2018-12-21T00:27:57.290Z,3.67
2018-12-21T00:30:24.458Z,3.30
2018-12-21T00:32:57.679Z,3.35
2018-12-21T00:35:31.075Z,2.95
2018-12-21T00:38:05.634Z,3.00
2018-12-21T00:40:39.358Z,3.50
2018-12-21T00:43:44.045Z,3.50
2018-12-21T00:46:16.337Z,3.20
2018-12-21T00:48:44.431Z,3.40
2018-12-21T00:51:12.278Z,3.30
2018-12-21T00:53:40.272Z,3.35
2018-12-21T00:56:08.209Z,3.15
2018-12-21T00:58:36.059Z,3.30
2018-12-21T01:01:04.116Z,3.50
2018-12-21T01:03:31.967Z,3.45
2018-12-21T01:05:59.915Z,3.15
2018-12-21T01:08:27.984Z,3.15
2018-12-21T01:10:55.849Z,2.80
2018-12-21T01:13:23.748Z,2.80
2018-12-21T01:15:51.609Z,3.12
2018-12-21T01:18:19.460Z,3.40
2018-12-21T01:20:47.671Z,3.12
2018-12-21T01:23:15.531Z,3.10
2018-12-21T01:25:43.384Z,3.02
2018-12-21T01:28:11.243Z,2.75
2018-12-21T01:30:39.327Z,2.90
2018-12-21T01:33:07.150Z,2.90
2018-12-21T01:35:35.076Z,3.15
2018-12-21T01:38:02.984Z,3.10
2018-12-21T01:40:30.812Z,3.00
2018-12-21T01:42:58.865Z,3.08
2018-12-21T01:45:26.680Z,2.73
2018-12-21T01:47:54.538Z,2.90
2018-12-21T01:50:22.569Z,2.83
2018-12-21T01:52:50.499Z,3.00
2018-12-21T01:55:19.567Z,3.10
2018-12-21T01:57:47.458Z,2.77
2018-12-21T02:00:15.278Z,2.70
2018-12-21T02:02:43.151Z,2.98
2018-12-21T02:05:11.143Z,3.65
2018-12-21T02:07:38.972Z,2.80
2018-12-21T02:10:06.940Z,3.08
2018-12-21T02:12:34.823Z,3.02
2018-12-21T02:15:02.839Z,2.72
2018-12-21T02:17:30.913Z,2.83
2018-12-21T02:19:58.664Z,2.67
2018-12-21T02:22:26.511Z,3.20
2018-12-21T02:24:54.369Z,2.75
2018-12-21T02:27:22.183Z,3.17
2018-12-21T02:29:50.037Z,3.30
2018-12-21T02:32:17.998Z,2.77
2018-12-21T02:34:45.897Z,3.10
2018-12-21T02:37:13.862Z,2.65
2018-12-21T02:39:41.702Z,2.87
2018-12-21T02:42:09.766Z,3.30
2018-12-21T02:44:37.768Z,2.85
2018-12-21T02:47:05.764Z,3.22
2018-12-21T02:49:33.636Z,3.13
2018-12-21T02:52:05.681Z,2.90
2018-12-21T02:54:31.326Z,3.12
2018-12-21T02:56:59.327Z,2.92
2018-12-21T02:59:27.100Z,2.72
2018-12-21T03:01:55.008Z,2.65
2018-12-21T03:04:22.821Z,2.87
2018-12-21T03:06:51.003Z,2.58
2018-12-21T03:09:18.815Z,2.70
2018-12-21T03:11:46.711Z,2.75
2018-12-21T03:14:14.587Z,3.00
2018-12-21T03:16:42.499Z,2.80
2018-12-21T03:19:10.488Z,2.60
2018-12-21T03:21:38.451Z,2.65
2018-12-21T03:24:06.328Z,2.50
2018-12-21T03:26:34.154Z,2.37
2018-12-21T03:29:02.005Z,2.75
2018-12-21T03:31:30.177Z,3.00
2018-12-21T03:33:58.116Z,2.65
2018-12-21T03:36:25.934Z,3.07
2018-12-21T03:38:53.815Z,2.80
2018-12-21T03:41:21.887Z,2.85
2018-12-21T03:43:49.700Z,2.95
2018-12-21T03:46:17.654Z,2.67
2018-12-21T03:48:45.575Z,2.83
2018-12-21T03:51:13.512Z,2.70
2018-12-21T03:53:41.328Z,2.70
2018-12-21T03:56:09.192Z,2.77
2018-12-21T03:58:37.384Z,2.70
2018-12-21T04:01:05.216Z,2.60
2018-12-21T04:03:33.016Z,2.77
2018-12-21T04:06:01.087Z,2.90
2018-12-21T04:08:28.929Z,2.63
2018-12-21T04:10:56.860Z,2.50
2018-12-21T04:13:24.741Z,2.70
2018-12-21T04:15:53.024Z,3.00
2018-12-21T04:18:20.838Z,2.67
2018-12-21T04:20:48.766Z,2.65
2018-12-21T04:23:16.684Z,2.83
2018-12-21T04:25:44.707Z,2.72
2018-12-21T04:28:12.567Z,3.05
2018-12-21T04:30:40.432Z,3.00
2018-12-21T04:33:08.231Z,2.90
2018-12-21T04:35:36.073Z,2.87
2018-12-21T04:38:04.003Z,3.10
2018-12-21T04:40:31.812Z,3.00
2018-12-21T04:43:01.239Z,2.90
2018-12-21T04:45:29.036Z,3.10
2018-12-21T04:47:56.886Z,2.92
2018-12-21T04:50:24.840Z,3.10
2018-12-21T04:52:52.643Z,3.10
2018-12-21T04:55:20.580Z,2.90
2018-12-21T04:57:48.348Z,2.92
2018-12-21T05:00:16.286Z,2.70
2018-12-21T05:02:44.080Z,2.92
2018-12-21T05:05:11.916Z,2.90
2018-12-21T05:07:39.765Z,3.10
2018-12-21T05:10:07.763Z,2.80
2018-12-21T05:12:35.595Z,3.02
2018-12-21T05:15:03.710Z,3.03
2018-12-21T05:17:32.716Z,2.65
2018-12-21T05:20:00.571Z,2.90
2018-12-21T05:22:28.405Z,2.80
2018-12-21T05:24:56.259Z,3.25
2018-12-21T05:27:24.331Z,2.98
2018-12-21T05:29:52.146Z,2.83
2018-12-21T05:32:20.075Z,2.72
2018-12-21T05:34:49.871Z,3.27
2018-12-21T05:37:17.826Z,2.98
2018-12-21T05:39:45.656Z,2.80
2018-12-21T05:42:13.590Z,3.22
2018-12-21T05:44:41.474Z,2.80
2018-12-21T05:47:09.320Z,2.77
2018-12-21T05:49:37.332Z,2.62
2018-12-21T05:52:05.183Z,2.60
2018-12-21T05:54:33.055Z,2.87
2018-12-21T05:57:00.911Z,2.80
2018-12-21T05:59:28.832Z,2.85
2018-12-21T06:01:56.761Z,3.00
2018-12-21T06:04:24.588Z,3.10
2018-12-21T06:06:52.430Z,3.10
2018-12-21T06:09:20.323Z,2.90
2018-12-21T06:11:48.154Z,2.83
2018-12-21T06:14:16.048Z,3.20
2018-12-21T06:16:44.037Z,2.80
2018-12-21T06:19:12.360Z,2.95
2018-12-21T06:21:40.468Z,3.10
2018-12-21T06:24:08.272Z,2.98
2018-12-21T06:26:36.123Z,2.90
2018-12-21T06:29:03.994Z,3.10
2018-12-21T06:31:31.922Z,3.60
2018-12-21T06:33:59.766Z,3.02
2018-12-21T06:36:27.610Z,2.80
2018-12-21T06:38:55.420Z,2.90
2018-12-21T06:41:23.282Z,2.92
2018-12-21T06:43:51.140Z,3.25
2018-12-21T06:46:18.938Z,2.85
2018-12-21T06:48:46.850Z,3.20
2018-12-21T06:51:14.642Z,2.77
2018-12-21T06:53:42.469Z,3.05
2018-12-21T06:56:10.508Z,2.72
2018-12-21T06:58:38.326Z,3.22
2018-12-21T07:01:06.183Z,3.15
2018-12-21T07:03:34.205Z,2.65
2018-12-21T07:06:02.083Z,2.67
2018-12-21T07:08:30.080Z,3.17
2018-12-21T07:10:57.981Z,3.35
2018-12-21T07:13:25.809Z,2.85
2018-12-21T07:15:53.715Z,2.67
2018-12-21T07:18:21.656Z,2.58
2018-12-21T07:20:49.535Z,2.90
2018-12-21T07:23:17.355Z,2.60
2018-12-21T07:25:45.235Z,2.87
2018-12-21T07:28:13.281Z,2.55
2018-12-21T07:30:41.152Z,2.42
2018-12-21T07:33:08.992Z,2.83
2018-12-21T07:35:36.858Z,2.60
2018-12-21T07:38:04.666Z,2.52
2018-12-21T07:40:32.557Z,2.50
2018-12-21T07:43:00.471Z,2.50
2018-12-21T07:45:28.344Z,2.30
2018-12-21T07:47:56.167Z,2.50
2018-12-21T07:50:24.155Z,2.45
2018-12-21T07:52:53.341Z,2.80
2018-12-21T07:55:21.362Z,2.58
2018-12-21T07:57:49.304Z,2.37
2018-12-21T08:00:17.215Z,2.80
2018-12-21T08:02:45.323Z,2.40
2018-12-21T08:05:13.353Z,2.40
2018-12-21T08:07:41.166Z,2.12
2018-12-21T08:10:14.431Z,2.22
2018-12-21T08:12:42.378Z,2.17
2018-12-21T08:15:10.280Z,3.25
2018-12-21T08:17:38.250Z,2.40
2018-12-21T08:20:06.730Z,2.92
2018-12-21T08:22:34.731Z,2.70
2018-12-21T08:25:02.685Z,2.45
2018-12-21T08:27:30.686Z,2.33
2018-12-21T08:29:58.491Z,2.27
2018-12-21T08:32:26.304Z,2.30
2018-12-21T08:34:54.133Z,2.50
2018-12-21T08:37:22.490Z,2.83
2018-12-21T08:39:50.431Z,2.40
2018-12-21T08:42:18.307Z,2.90
2018-12-21T08:44:46.147Z,2.90
2018-12-21T08:47:14.099Z,2.50
2018-12-21T08:49:42.027Z,2.70
2018-12-21T08:52:09.825Z,2.70
2018-12-21T08:54:37.780Z,2.90
2018-12-21T08:57:05.666Z,2.83
2018-12-21T08:59:33.557Z,3.00
2018-12-21T09:02:01.432Z,3.05
2018-12-21T09:04:32.370Z,2.70
2018-12-21T09:06:59.111Z,2.77
2018-12-21T09:09:27.005Z,2.60
2018-12-21T09:11:54.851Z,2.60
2018-12-21T09:14:22.747Z,2.52
2018-12-21T09:16:50.747Z,2.70
2018-12-21T09:19:18.607Z,2.73
2018-12-21T09:21:46.557Z,2.40
2018-12-21T09:24:14.468Z,2.50
2018-12-21T09:26:42.319Z,2.25
2018-12-21T09:29:10.310Z,2.70
2018-12-21T09:31:38.228Z,2.70
2018-12-21T09:34:06.102Z,2.93
2018-12-21T09:39:08.459Z,3.58
2018-12-21T09:41:37.651Z,2.90
2018-12-21T09:44:05.455Z,2.50
2018-12-21T09:46:33.434Z,2.27
2018-12-21T09:49:01.406Z,2.30
2018-12-21T09:51:29.256Z,2.40
2018-12-21T09:53:57.120Z,2.10
2018-12-21T09:56:25.096Z,2.60
2018-12-21T09:58:53.112Z,2.67
2018-12-21T10:01:21.035Z,2.52
2018-12-21T10:03:48.980Z,2.37
2018-12-21T10:06:16.932Z,2.37
2018-12-21T10:08:44.786Z,3.10
2018-12-21T10:11:12.741Z,2.47
2018-12-21T10:13:40.540Z,2.40
2018-12-21T10:16:08.507Z,2.35
2018-12-21T10:18:36.389Z,2.40
2018-12-21T10:21:04.237Z,2.37
2018-12-21T10:23:32.132Z,2.35
2018-12-21T10:25:59.963Z,2.10
2018-12-21T10:28:27.772Z,2.42
2018-12-21T10:30:55.686Z,2.12
2018-12-21T10:33:23.572Z,2.40
2018-12-21T10:35:51.388Z,2.47
2018-12-21T10:38:19.367Z,2.35
2018-12-21T10:40:47.243Z,2.83
2018-12-21T10:43:15.185Z,2.30
2018-12-21T10:45:43.002Z,2.35
2018-12-21T10:48:10.913Z,2.77
2018-12-21T10:50:38.794Z,2.72
2018-12-21T10:53:06.801Z,2.85
2018-12-21T10:55:35.092Z,2.45
2018-12-21T10:58:03.010Z,2.62
2018-12-21T11:00:30.852Z,2.30
2018-12-21T11:02:58.739Z,2.22
2018-12-21T11:05:26.603Z,2.22
2018-12-21T11:07:54.475Z,2.10
2018-12-21T11:10:22.336Z,1.80
2018-12-21T11:12:50.157Z,1.62
2018-12-21T11:15:18.018Z,1.50
2018-12-21T11:17:45.921Z,1.40
2018-12-21T11:20:13.715Z,1.27
2018-12-21T11:22:41.539Z,1.47
2018-12-21T11:25:10.239Z,1.50
2018-12-21T11:27:38.275Z,1.60
2018-12-21T11:30:06.283Z,1.50
2018-12-21T11:32:34.307Z,1.37
2018-12-21T11:35:02.186Z,1.30
2018-12-21T11:37:30.385Z,1.42
2018-12-21T11:39:58.243Z,1.10
2018-12-21T11:42:26.266Z,1.47
2018-12-21T11:44:54.304Z,1.00
2018-12-21T11:47:22.162Z,1.12
2018-12-21T11:49:50.026Z,1.20
2018-12-21T11:52:18.069Z,1.10
2018-12-21T11:54:45.881Z,1.00
2018-12-21T11:57:13.864Z,0.90
2018-12-21T11:59:44.960Z,0.90
2018-12-21T12:02:19.322Z,1.00
2018-12-21T12:04:41.575Z,0.70
2018-12-21T12:07:09.383Z,0.80
2018-12-21T12:09:37.262Z,0.78
2018-12-21T12:12:05.146Z,0.80
2018-12-21T12:14:33.030Z,1.00
2018-12-21T12:17:00.863Z,0.78
2018-12-21T12:19:28.726Z,0.80
2018-12-21T12:21:56.599Z,0.80
2018-12-21T12:24:24.479Z,0.70
2018-12-21T12:26:52.372Z,0.60
2018-12-21T12:29:20.262Z,0.80
2018-12-21T12:31:48.158Z,0.80
2018-12-21T12:34:15.984Z,0.70
2018-12-21T12:36:43.831Z,0.70
2018-12-21T12:39:11.771Z,0.80
2018-12-21T12:41:39.703Z,0.85
2018-12-21T12:44:07.764Z,0.70
2018-12-21T12:46:35.627Z,0.80
2018-12-21T12:49:03.698Z,0.80
2018-12-21T12:51:31.491Z,0.85
2018-12-21T12:53:59.385Z,0.90
2018-12-21T12:56:27.688Z,0.90
2018-12-21T13:02:17.089Z,0.62
2018-12-21T13:04:44.935Z,0.78
2018-12-21T13:07:12.841Z,0.90
2018-12-21T13:09:40.689Z,0.80
2018-12-21T13:12:08.553Z,0.80
2018-12-21T13:14:36.379Z,0.80
2018-12-21T13:17:04.329Z,1.13
2018-12-21T13:19:32.206Z,0.80
2018-12-21T13:22:00.093Z,0.80
2018-12-21T13:24:28.070Z,0.90
2018-12-21T13:26:56.069Z,0.90
2018-12-21T13:29:23.949Z,0.80
2018-12-21T13:31:51.996Z,0.70
2018-12-21T13:34:20.158Z,0.70
2018-12-21T13:36:48.056Z,1.05
2018-12-21T13:39:16.032Z,0.78
2018-12-21T13:41:43.866Z,0.70
2018-12-21T13:44:11.723Z,0.80
2018-12-21T13:46:39.595Z,0.70
2018-12-21T13:49:07.595Z,0.70
2018-12-21T13:51:35.747Z,0.72
2018-12-21T13:54:03.792Z,0.90
2018-12-21T13:56:31.761Z,0.98
2018-12-21T13:58:59.837Z,1.10
2018-12-21T14:01:27.767Z,0.80
2018-12-21T14:03:55.648Z,0.85
2018-12-21T14:06:23.517Z,1.00
2018-12-21T14:08:51.754Z,0.75
2018-12-21T14:11:19.615Z,0.82
2018-12-21T14:13:47.460Z,0.98
2018-12-21T14:16:15.361Z,0.90
2018-12-21T14:18:43.405Z,0.88
2018-12-21T14:21:11.275Z,1.20
2018-12-21T14:23:39.102Z,0.85
2018-12-21T14:26:07.031Z,0.90
2018-12-21T14:28:34.863Z,0.80
2018-12-21T14:31:02.744Z,0.98
2018-12-21T14:33:30.600Z,1.02
2018-12-21T14:35:58.440Z,0.88
2018-12-21T14:38:26.456Z,1.00
2018-12-21T14:40:54.348Z,0.80
2018-12-21T14:43:22.166Z,0.80
2018-12-21T14:45:50.037Z,0.78
2018-12-21T14:48:17.899Z,0.80
2018-12-21T14:50:45.754Z,1.00
2018-12-21T14:53:13.607Z,0.80
2018-12-21T14:55:41.551Z,0.70
2018-12-21T14:58:09.391Z,0.80
2018-12-21T15:00:38.657Z,0.80
2018-12-21T15:03:07.097Z,1.05
2018-12-21T15:05:35.080Z,3.60
2018-12-21T15:08:02.993Z,0.90
2018-12-21T15:10:30.852Z,1.00
2018-12-21T15:12:58.720Z,0.90
2018-12-21T15:15:26.672Z,0.80
2018-12-21T15:17:54.509Z,0.72
2018-12-21T15:20:22.601Z,0.90
2018-12-21T15:22:50.442Z,1.00
2018-12-21T15:25:18.304Z,1.10
2018-12-21T15:27:46.514Z,0.70
2018-12-21T15:30:14.488Z,1.40
2018-12-21T15:32:42.389Z,1.10
2018-12-21T15:35:10.419Z,0.95
2018-12-21T15:37:38.297Z,0.90
2018-12-21T15:40:06.382Z,1.00
2018-12-21T15:42:34.251Z,1.52
2018-12-21T15:45:02.124Z,0.80
2018-12-21T15:47:30.007Z,0.90
2018-12-21T15:49:57.876Z,0.90
2018-12-21T15:52:26.066Z,0.80
2018-12-21T15:54:54.327Z,0.90
2018-12-21T15:57:22.281Z,0.82
2018-12-21T15:59:50.158Z,0.90
2018-12-21T16:02:18.132Z,0.95
2018-12-21T16:04:46.380Z,0.90
2018-12-21T16:07:14.562Z,1.00
2018-12-21T16:09:42.485Z,0.80
2018-12-21T16:12:10.391Z,0.90
2018-12-21T16:14:38.226Z,0.80
2018-12-21T16:17:06.055Z,0.80
2018-12-21T16:19:34.038Z,0.80
2018-12-21T16:22:01.820Z,0.90
2018-12-21T16:24:29.780Z,1.17
2018-12-21T16:26:57.623Z,1.00
2018-12-21T16:29:25.668Z,1.00
2018-12-21T16:31:53.587Z,1.02
2018-12-21T16:34:21.435Z,1.00
2018-12-21T16:36:49.591Z,1.20
2018-12-21T16:39:17.441Z,1.45
2018-12-21T16:41:45.344Z,1.20
2018-12-21T16:44:13.247Z,1.10
2018-12-21T16:46:41.117Z,1.40
2018-12-21T16:49:09.020Z,1.40
2018-12-21T16:51:36.856Z,1.20
2018-12-21T16:54:04.943Z,1.00
2018-12-21T16:56:32.794Z,1.10
2018-12-21T16:59:00.643Z,1.00
2018-12-21T17:01:28.474Z,1.20
2018-12-21T17:03:56.352Z,1.10
2018-12-21T17:06:24.506Z,0.90
2018-12-21T17:08:52.389Z,0.90
2018-12-21T17:11:20.269Z,0.90
2018-12-21T17:13:48.184Z,1.10
2018-12-21T17:16:16.034Z,0.93
2018-12-21T17:18:43.823Z,0.80
2018-12-21T17:21:11.696Z,1.00
2018-12-21T17:23:39.559Z,1.00
2018-12-21T17:26:07.492Z,0.82
2018-12-21T17:28:35.512Z,1.10
2018-12-21T17:31:03.406Z,1.10
2018-12-21T17:33:31.274Z,0.98
2018-12-21T17:35:59.177Z,0.95
2018-12-21T17:38:26.995Z,1.17
2018-12-21T17:40:54.887Z,1.00
2018-12-21T17:43:22.737Z,1.10
2018-12-21T17:45:50.660Z,1.00
2018-12-21T17:48:18.486Z,1.17
2018-12-21T17:50:46.337Z,1.10
2018-12-21T17:53:14.331Z,1.10
2018-12-21T17:55:42.236Z,1.02
2018-12-21T17:58:10.123Z,0.90
2018-12-21T18:00:38.247Z,1.10
2018-12-21T18:03:06.908Z,1.57
2018-12-21T18:05:35.242Z,1.22
2018-12-21T18:08:03.139Z,1.00
2018-12-21T18:10:31.020Z,1.00
2018-12-21T18:12:58.860Z,1.85
2018-12-21T18:15:26.704Z,1.90
2018-12-21T18:17:54.641Z,1.63
2018-12-21T18:20:22.610Z,1.30
2018-12-21T18:22:50.441Z,1.30
2018-12-21T18:25:22.811Z,1.30
2018-12-21T18:27:52.845Z,1.20
2018-12-21T18:30:40.289Z,1.27
2018-12-21T18:33:10.871Z,1.10
2018-12-21T18:35:38.855Z,1.10
2018-12-21T18:38:08.639Z,1.12
2018-12-21T18:40:36.585Z,1.10
2018-12-21T18:43:04.407Z,1.27
2018-12-21T18:45:32.295Z,1.20
2018-12-21T18:48:00.201Z,1.40
2018-12-21T18:50:28.636Z,1.15
2018-12-21T18:52:57.578Z,1.20
2018-12-21T18:55:25.613Z,1.20
2018-12-21T18:57:54.670Z,1.40
2018-12-21T19:00:22.534Z,1.20
2018-12-21T19:02:50.388Z,1.10
2018-12-21T19:05:18.346Z,1.12
2018-12-21T19:07:46.183Z,1.70
2018-12-21T19:10:14.197Z,1.32
2018-12-21T19:12:42.261Z,1.30
2018-12-21T19:15:10.762Z,1.20
2018-12-21T19:17:38.770Z,1.40
2018-12-21T19:20:08.311Z,1.60
2018-12-21T19:22:36.167Z,1.40
2018-12-21T19:25:04.160Z,1.20
2018-12-21T19:27:31.983Z,2.80
2018-12-21T19:30:00.709Z,1.20
2018-12-21T19:32:28.610Z,1.20
2018-12-21T19:34:56.506Z,1.30
2018-12-21T19:37:24.571Z,1.32
2018-12-21T19:39:52.528Z,1.33
2018-12-21T19:42:20.373Z,1.50
2018-12-21T19:44:48.265Z,1.40
2018-12-21T19:47:16.231Z,1.35
2018-12-21T19:49:44.175Z,1.37
2018-12-21T19:52:12.085Z,1.30
2018-12-21T19:54:40.118Z,2.22
2018-12-21T19:57:09.366Z,1.47
2018-12-21T19:59:37.464Z,1.52
2018-12-21T20:02:05.620Z,1.30
2018-12-21T20:04:33.568Z,1.90
2018-12-21T20:07:01.818Z,1.90
2018-12-21T20:09:29.658Z,1.57
2018-12-21T20:11:58.236Z,1.20
2018-12-21T20:14:26.282Z,1.42
2018-12-21T20:16:54.170Z,1.40
2018-12-21T20:19:22.060Z,1.50
2018-12-21T20:21:49.914Z,1.40
2018-12-21T20:24:18.737Z,1.45
2018-12-21T20:26:48.136Z,1.80
2018-12-21T20:29:16.314Z,1.80
2018-12-21T20:31:44.723Z,1.50
2018-12-21T20:34:12.569Z,1.50
2018-12-21T20:36:41.552Z,1.30
2018-12-21T20:39:12.837Z,1.80
2018-12-21T20:41:40.676Z,1.40
2018-12-21T20:44:09.601Z,1.62
2018-12-21T20:46:37.656Z,1.60
2018-12-21T20:49:05.573Z,1.40
2018-12-21T20:51:33.423Z,1.47
2018-12-21T20:54:01.602Z,1.42
2018-12-21T20:56:29.431Z,1.63
2018-12-21T20:58:59.513Z,1.32
2018-12-21T21:01:27.473Z,1.40
2018-12-21T21:03:55.395Z,2.45
2018-12-21T21:06:23.283Z,1.70
2018-12-21T21:08:51.230Z,1.90
2018-12-21T21:11:24.277Z,1.62
2018-12-21T21:13:49.152Z,1.70
2018-12-21T21:16:17.089Z,1.90
2018-12-21T21:18:45.089Z,2.00
2018-12-21T21:21:12.972Z,1.82
2018-12-21T21:23:40.826Z,1.40
2018-12-21T21:26:09.260Z,2.05
2018-12-21T21:28:37.200Z,2.00
2018-12-21T21:31:05.032Z,1.77
2018-12-21T21:33:32.936Z,1.92
2018-12-21T21:36:01.026Z,2.12
2018-12-21T21:38:28.847Z,1.90
2018-12-21T21:40:56.957Z,1.90
2018-12-21T21:43:24.873Z,2.15
2018-12-21T21:45:54.124Z,2.30
2018-12-21T21:48:22.270Z,2.00
2018-12-21T21:50:50.337Z,1.80
2018-12-21T21:53:19.551Z,1.30
2018-12-21T21:55:47.536Z,1.65
2018-12-21T21:58:15.714Z,2.25
2018-12-21T22:00:43.822Z,2.70
2018-12-21T22:03:11.757Z,2.83
2018-12-21T22:05:39.899Z,2.15
2018-12-21T22:08:07.895Z,1.90
2018-12-21T22:10:35.760Z,2.45
2018-12-21T22:13:03.730Z,1.75
2018-12-21T22:15:31.855Z,2.02
2018-12-21T22:17:59.784Z,1.72
2018-12-21T22:20:28.661Z,2.27
2018-12-21T22:22:56.636Z,2.00
2018-12-21T22:25:24.767Z,2.08
2018-12-21T22:27:52.714Z,2.20
2018-12-21T22:30:20.950Z,1.80
2018-12-21T22:32:49.461Z,2.40
2018-12-21T22:35:17.322Z,1.60
2018-12-21T22:37:45.488Z,1.57
2018-12-21T22:40:13.324Z,1.70
2018-12-21T22:42:41.455Z,1.40
2018-12-21T22:45:09.551Z,1.60
2018-12-21T22:47:37.520Z,1.57
2018-12-21T22:50:06.466Z,1.67
2018-12-21T22:52:34.420Z,1.57
2018-12-21T22:55:02.562Z,1.50
2018-12-21T22:57:30.553Z,1.40
2018-12-21T22:59:58.416Z,1.40
2018-12-21T23:02:26.374Z,1.20
2018-12-21T23:04:54.360Z,1.45
2018-12-21T23:07:22.380Z,1.60
2018-12-21T23:09:50.335Z,1.70
2018-12-21T23:12:18.345Z,1.70
2018-12-21T23:14:46.257Z,1.67
2018-12-21T23:17:14.181Z,2.90
2018-12-21T23:19:43.211Z,1.98
2018-12-21T23:22:11.253Z,3.00
2018-12-21T23:24:39.135Z,2.15
2018-12-21T23:27:07.036Z,2.05
2018-12-21T23:29:35.962Z,1.20
2018-12-21T23:32:03.846Z,1.70
2018-12-21T23:34:32.161Z,1.90
2018-12-21T23:37:00.081Z,2.00
2018-12-21T23:39:27.962Z,1.50
2018-12-21T23:41:55.994Z,1.80
2018-12-21T23:44:23.876Z,1.72
2018-12-21T23:46:51.795Z,1.92
2018-12-21T23:49:19.727Z,1.87
2018-12-21T23:51:47.543Z,1.90
2018-12-21T23:54:15.385Z,1.63
2018-12-21T23:56:43.239Z,1.50
2018-12-21T23:59:11.165Z,1.60
